createdAt,value
2019-03-29T00:00:46.032Z,39.63
2019-03-29T00:03:14.523Z,33.80
2019-03-29T00:05:42.969Z,33.27
2019-03-29T00:08:11.499Z,31.80
2019-03-29T00:10:39.947Z,33.20
2019-03-29T00:13:08.375Z,32.20
2019-03-29T00:15:36.863Z,37.30
2019-03-29T00:18:05.288Z,38.00
2019-03-29T00:20:33.799Z,36.23
2019-03-29T00:23:02.251Z,33.67
2019-03-29T00:25:30.683Z,33.43
2019-03-29T00:27:59.131Z,37.67
2019-03-29T00:30:27.557Z,37.23
2019-03-29T00:32:55.995Z,38.23
2019-03-29T00:35:24.415Z,38.30
2019-03-29T00:37:54.943Z,41.10
2019-03-29T00:40:22.995Z,42.50
2019-03-29T00:42:51.591Z,52.00
2019-03-29T00:45:20.080Z,50.10
2019-03-29T00:47:48.512Z,42.70
2019-03-29T00:50:16.964Z,40.77
2019-03-29T00:52:45.382Z,41.03
2019-03-29T00:55:14.116Z,44.30
2019-03-29T00:57:42.639Z,47.03
2019-03-29T01:00:11.623Z,41.40
2019-03-29T01:02:40.043Z,43.13
2019-03-29T01:05:08.753Z,41.43
2019-03-29T01:07:37.207Z,41.20
2019-03-29T01:10:06.965Z,48.07
2019-03-29T01:12:35.424Z,39.60
2019-03-29T01:15:07.106Z,55.93
2019-03-29T01:17:35.924Z,45.10
2019-03-29T01:20:09.261Z,53.80
2019-03-29T01:22:37.722Z,40.30
2019-03-29T01:25:08.318Z,45.80
2019-03-29T01:27:37.319Z,54.67
2019-03-29T01:30:07.680Z,46.30
2019-03-29T01:32:36.138Z,46.27
2019-03-29T01:35:07.316Z,48.90
2019-03-29T01:37:35.927Z,48.53
2019-03-29T01:40:05.726Z,46.53
2019-03-29T01:42:34.170Z,54.53
2019-03-29T01:45:02.787Z,58.93
2019-03-29T01:47:31.239Z,54.40
2019-03-29T01:49:59.698Z,45.67
2019-03-29T01:52:31.332Z,52.63
2019-03-29T01:54:58.296Z,48.20
2019-03-29T01:57:26.707Z,51.47
2019-03-29T01:59:55.162Z,48.77
2019-03-29T02:02:23.619Z,50.63
2019-03-29T02:04:52.047Z,56.43
2019-03-29T02:07:20.495Z,54.40
2019-03-29T02:09:48.925Z,49.80
2019-03-29T02:12:17.377Z,47.27
2019-03-29T02:14:46.067Z,51.13
2019-03-29T02:17:14.551Z,45.20
2019-03-29T02:19:43.005Z,43.23
2019-03-29T02:22:11.464Z,46.47
2019-03-29T02:24:39.892Z,57.00
2019-03-29T02:27:08.322Z,49.10
2019-03-29T02:29:36.948Z,47.70
2019-03-29T02:32:05.780Z,45.93
2019-03-29T02:34:34.240Z,44.63
2019-03-29T02:37:02.739Z,60.77
2019-03-29T02:39:31.428Z,47.77
2019-03-29T02:42:00.007Z,44.93
2019-03-29T02:44:28.595Z,56.67
2019-03-29T02:46:57.070Z,45.70
2019-03-29T02:49:25.772Z,57.77
2019-03-29T02:51:54.270Z,37.73
2019-03-29T02:54:22.724Z,51.77
2019-03-29T02:56:51.166Z,42.13
2019-03-29T02:59:19.614Z,50.73
2019-03-29T03:01:48.049Z,47.43
2019-03-29T03:04:16.774Z,38.37
2019-03-29T03:06:45.223Z,42.50
2019-03-29T03:09:14.766Z,45.23
2019-03-29T03:11:43.570Z,42.83
2019-03-29T03:14:12.139Z,45.37
2019-03-29T03:16:40.602Z,49.27
2019-03-29T03:19:09.049Z,46.47
2019-03-29T03:21:37.496Z,54.13
2019-03-29T03:24:05.930Z,41.20
2019-03-29T03:26:34.381Z,42.80
2019-03-29T03:29:03.043Z,51.60
2019-03-29T03:31:31.481Z,44.43
2019-03-29T03:33:59.997Z,49.07
2019-03-29T03:36:28.520Z,48.40
2019-03-29T03:38:57.495Z,40.00
2019-03-29T03:41:26.017Z,42.37
2019-03-29T03:43:54.456Z,46.13
2019-03-29T03:46:22.959Z,46.33
2019-03-29T03:48:51.387Z,55.90
2019-03-29T03:51:19.972Z,46.47
2019-03-29T03:53:48.799Z,47.60
2019-03-29T03:56:19.231Z,41.13
2019-03-29T03:58:48.117Z,46.60
2019-03-29T04:01:17.272Z,43.50
2019-03-29T04:03:45.701Z,49.03
2019-03-29T04:06:14.202Z,46.60
2019-03-29T04:08:42.752Z,42.73
2019-03-29T04:11:11.181Z,51.87
2019-03-29T04:13:39.601Z,51.73
2019-03-29T04:16:08.061Z,54.47
2019-03-29T04:18:36.481Z,57.07
2019-03-29T04:21:04.927Z,52.57
2019-03-29T04:23:33.372Z,48.13
2019-03-29T04:26:01.802Z,56.07
2019-03-29T04:28:30.251Z,51.53
2019-03-29T04:30:58.676Z,50.97
2019-03-29T04:33:27.245Z,45.07
2019-03-29T04:35:55.715Z,53.40
2019-03-29T04:38:24.171Z,54.23
2019-03-29T04:40:52.671Z,48.80
2019-03-29T04:43:21.207Z,51.10
2019-03-29T04:45:49.728Z,60.47
2019-03-29T04:48:18.172Z,55.23
2019-03-29T04:50:46.590Z,61.03
2019-03-29T04:53:15.047Z,51.40
2019-03-29T04:55:43.574Z,50.53
2019-03-29T04:58:12.024Z,57.73
2019-03-29T05:00:40.448Z,50.63
2019-03-29T05:03:08.889Z,61.00
2019-03-29T05:05:37.337Z,54.63
2019-03-29T05:08:05.793Z,58.30
2019-03-29T05:10:34.252Z,54.00
2019-03-29T05:13:02.666Z,56.73
2019-03-29T05:15:31.111Z,58.47
2019-03-29T05:17:59.531Z,63.90
2019-03-29T05:20:47.343Z,55.40
2019-03-29T05:23:15.848Z,57.67
2019-03-29T05:25:44.416Z,55.63
2019-03-29T05:28:12.862Z,62.33
2019-03-29T05:30:41.304Z,51.70
2019-03-29T05:33:09.757Z,54.10
2019-03-29T05:35:38.172Z,58.23
2019-03-29T05:38:06.629Z,50.03
2019-03-29T05:40:35.436Z,62.80
2019-03-29T05:43:04.150Z,58.23
2019-03-29T05:45:33.224Z,57.43
2019-03-29T05:48:02.971Z,50.03
2019-03-29T05:50:31.503Z,54.70
2019-03-29T05:53:00.063Z,50.13
2019-03-29T05:55:32.857Z,61.37
2019-03-29T05:57:58.672Z,50.33
2019-03-29T06:00:27.135Z,59.33
2019-03-29T06:02:55.561Z,54.27
2019-03-29T06:05:24.003Z,52.70
2019-03-29T06:07:52.532Z,59.90
2019-03-29T06:10:20.987Z,47.17
2019-03-29T06:12:49.405Z,68.60
2019-03-29T06:15:17.818Z,54.87
2019-03-29T06:17:48.780Z,52.47
2019-03-29T06:20:16.856Z,51.53
2019-03-29T06:22:45.447Z,50.97
2019-03-29T06:25:14.031Z,51.23
2019-03-29T06:27:42.488Z,49.93
2019-03-29T06:30:11.045Z,52.50
2019-03-29T06:32:39.496Z,56.37
2019-03-29T06:35:08.255Z,52.30
2019-03-29T06:37:39.113Z,57.67
2019-03-29T06:40:10.244Z,59.80
2019-03-29T06:42:38.699Z,45.23
2019-03-29T06:45:09.045Z,48.50
2019-03-29T06:47:37.531Z,49.30
2019-03-29T06:50:07.339Z,44.97
2019-03-29T06:52:35.787Z,56.37
2019-03-29T06:55:04.789Z,48.23
2019-03-29T06:57:33.299Z,48.03
2019-03-29T07:00:01.722Z,49.93
2019-03-29T07:02:30.171Z,58.50
2019-03-29T07:04:58.591Z,46.43
2019-03-29T07:07:27.016Z,49.30
2019-03-29T07:09:55.454Z,47.20
2019-03-29T07:12:23.876Z,46.27
2019-03-29T07:14:52.332Z,41.00
2019-03-29T07:17:20.763Z,43.83
2019-03-29T07:19:49.270Z,51.50
2019-03-29T07:22:18.570Z,50.97
2019-03-29T07:24:46.991Z,57.00
2019-03-29T07:27:15.436Z,50.00
2019-03-29T07:29:43.856Z,50.17
2019-03-29T07:32:12.301Z,56.67
2019-03-29T07:34:40.746Z,53.23
2019-03-29T07:37:09.180Z,49.40
2019-03-29T07:39:37.701Z,52.53
2019-03-29T07:42:06.131Z,54.63
2019-03-29T07:44:34.556Z,52.77
2019-03-29T07:47:03.032Z,50.00
2019-03-29T07:49:31.823Z,51.00
2019-03-29T07:52:00.273Z,59.33
2019-03-29T07:54:28.692Z,54.17
2019-03-29T07:56:57.152Z,50.83
2019-03-29T07:59:25.572Z,48.97
2019-03-29T08:01:54.037Z,49.30
2019-03-29T08:04:23.888Z,50.50
2019-03-29T08:06:52.652Z,46.77
2019-03-29T08:09:22.503Z,47.63
2019-03-29T08:11:51.351Z,45.73
2019-03-29T08:14:19.771Z,41.13
2019-03-29T08:16:48.288Z,51.17
2019-03-29T08:19:16.705Z,44.23
2019-03-29T08:21:45.180Z,42.20
2019-03-29T08:24:13.640Z,43.27
2019-03-29T08:26:42.208Z,38.93
2019-03-29T08:29:10.696Z,41.40
2019-03-29T08:31:39.164Z,43.57
2019-03-29T08:34:07.627Z,39.10
2019-03-29T08:36:36.070Z,43.80
2019-03-29T08:39:09.916Z,40.30
2019-03-29T08:41:36.800Z,40.03
2019-03-29T08:44:05.230Z,41.17
2019-03-29T08:46:33.760Z,41.27
2019-03-29T08:49:02.284Z,38.60
2019-03-29T08:51:30.706Z,43.00
2019-03-29T08:53:59.154Z,41.70
2019-03-29T08:56:27.608Z,37.50
2019-03-29T08:58:56.084Z,36.50
2019-03-29T09:01:24.542Z,37.73
2019-03-29T09:04:04.848Z,43.27
2019-03-29T09:06:23.288Z,36.33
2019-03-29T09:08:52.302Z,42.67
2019-03-29T09:11:20.728Z,42.77
2019-03-29T09:13:49.182Z,35.57
2019-03-29T09:16:17.609Z,35.17
2019-03-29T09:18:46.057Z,33.93
2019-03-29T09:21:14.488Z,41.20
2019-03-29T09:23:42.938Z,39.77
2019-03-29T09:26:11.449Z,33.93
2019-03-29T09:28:39.898Z,37.53
2019-03-29T09:31:08.327Z,41.87
2019-03-29T09:33:36.793Z,36.07
2019-03-29T09:36:05.366Z,39.77
2019-03-29T09:38:33.919Z,39.50
2019-03-29T09:41:02.382Z,40.00
2019-03-29T09:43:30.806Z,37.07
2019-03-29T09:45:59.371Z,41.03
2019-03-29T09:48:29.472Z,38.47
2019-03-29T09:50:57.996Z,40.40
2019-03-29T09:53:26.423Z,38.47
2019-03-29T09:55:54.898Z,38.70
2019-03-29T09:58:23.321Z,37.70
2019-03-29T10:00:51.789Z,46.57
2019-03-29T10:03:20.538Z,42.90
2019-03-29T10:05:48.966Z,40.67
2019-03-29T10:08:17.407Z,34.17
2019-03-29T10:10:45.832Z,38.03
2019-03-29T10:13:14.278Z,37.43
2019-03-29T10:15:42.711Z,36.57
2019-03-29T10:18:11.227Z,41.70
2019-03-29T10:20:39.651Z,37.40
2019-03-29T10:23:08.106Z,42.53
2019-03-29T10:25:36.566Z,38.20
2019-03-29T10:28:05.122Z,37.17
2019-03-29T10:30:38.494Z,38.43
2019-03-29T10:33:07.100Z,38.77
2019-03-29T10:35:50.230Z,38.33
2019-03-29T10:38:06.898Z,37.30
2019-03-29T10:40:35.324Z,38.90
2019-03-29T10:43:04.223Z,39.60
2019-03-29T10:45:38.014Z,43.20
2019-03-29T10:48:02.813Z,38.53
2019-03-29T10:50:31.345Z,39.50
2019-03-29T10:52:59.763Z,39.20
2019-03-29T10:55:28.284Z,38.03
2019-03-29T10:57:56.723Z,43.93
2019-03-29T11:00:36.799Z,42.23
2019-03-29T11:03:06.170Z,46.47
2019-03-29T11:05:34.784Z,43.53
2019-03-29T11:08:03.227Z,46.03
2019-03-29T11:10:33.912Z,37.33
2019-03-29T11:13:12.478Z,41.87
2019-03-29T11:15:33.362Z,41.53
2019-03-29T11:18:01.859Z,44.63
2019-03-29T11:20:30.466Z,35.53
2019-03-29T11:22:58.914Z,39.73
2019-03-29T11:25:27.337Z,40.33
2019-03-29T11:27:55.761Z,37.60
2019-03-29T11:30:24.215Z,37.00
2019-03-29T11:32:52.634Z,36.67
2019-03-29T11:35:40.589Z,35.80
2019-03-29T11:38:09.072Z,37.83
2019-03-29T11:40:37.498Z,38.20
2019-03-29T11:43:06.018Z,40.33
2019-03-29T11:45:35.087Z,32.43
2019-03-29T11:48:08.998Z,26.47
2019-03-29T11:50:33.825Z,34.90
2019-03-29T11:53:02.253Z,37.07
2019-03-29T11:55:30.964Z,37.07
2019-03-29T11:57:59.381Z,33.90
2019-03-29T12:00:35.715Z,36.20
2019-03-29T12:03:05.985Z,36.30
2019-03-29T12:05:36.417Z,39.40
2019-03-29T12:08:06.131Z,38.33
2019-03-29T12:10:35.155Z,46.47
2019-03-29T12:13:04.511Z,35.70
2019-03-29T12:15:33.007Z,37.83
2019-03-29T12:18:01.531Z,37.60
2019-03-29T12:20:29.961Z,33.20
2019-03-29T12:22:58.403Z,31.17
2019-03-29T12:25:26.911Z,28.10
2019-03-29T12:27:55.394Z,31.23
2019-03-29T12:30:31.723Z,34.50
2019-03-29T12:32:54.111Z,29.00
2019-03-29T12:35:22.631Z,30.60
2019-03-29T12:37:51.060Z,32.50
2019-03-29T12:40:19.599Z,33.83
2019-03-29T12:42:48.124Z,30.73
2019-03-29T12:45:16.621Z,30.80
2019-03-29T12:47:45.048Z,31.53
2019-03-29T12:50:14.007Z,27.90
2019-03-29T12:52:42.442Z,31.07
2019-03-29T12:55:11.091Z,32.77
2019-03-29T12:57:39.624Z,27.30
2019-03-29T13:00:08.658Z,30.50
2019-03-29T13:02:37.171Z,34.33
2019-03-29T13:05:06.645Z,28.60
2019-03-29T13:07:35.093Z,31.17
2019-03-29T13:10:06.469Z,28.30
2019-03-29T13:12:34.987Z,32.87
2019-03-29T13:15:22.774Z,27.80
2019-03-29T13:17:51.312Z,33.23
2019-03-29T13:20:19.831Z,31.63
2019-03-29T13:22:48.283Z,26.70
2019-03-29T13:25:16.701Z,28.93
2019-03-29T13:27:45.207Z,29.43
2019-03-29T13:30:17.006Z,29.47
2019-03-29T13:32:44.606Z,31.73
2019-03-29T13:35:13.217Z,29.87
2019-03-29T13:37:41.652Z,29.10
2019-03-29T13:40:10.239Z,33.30
2019-03-29T13:42:38.696Z,31.27
2019-03-29T13:45:08.631Z,37.93
2019-03-29T13:47:37.345Z,34.13
2019-03-29T13:50:09.785Z,34.30
2019-03-29T13:52:38.220Z,32.50
2019-03-29T13:55:07.827Z,30.73
2019-03-29T13:57:36.316Z,29.53
2019-03-29T14:00:11.035Z,26.80
2019-03-29T14:02:39.559Z,24.70
2019-03-29T14:05:08.159Z,22.00
2019-03-29T14:07:36.604Z,24.70
2019-03-29T14:10:08.840Z,22.20
2019-03-29T14:12:38.628Z,18.37
2019-03-29T14:15:11.468Z,16.23
2019-03-29T14:17:39.981Z,21.33
2019-03-29T14:20:09.989Z,15.27
2019-03-29T14:22:38.477Z,15.33
2019-03-29T14:25:07.947Z,13.80
2019-03-29T14:27:36.389Z,15.80
2019-03-29T14:30:07.340Z,15.67
2019-03-29T14:32:35.791Z,13.43
2019-03-29T14:35:06.474Z,16.70
2019-03-29T14:37:34.919Z,12.40
2019-03-29T14:40:04.511Z,13.03
2019-03-29T14:42:32.965Z,15.07
2019-03-29T14:45:01.535Z,12.40
2019-03-29T14:47:41.268Z,16.77
2019-03-29T14:50:01.296Z,11.87
2019-03-29T14:52:29.723Z,14.63
2019-03-29T14:54:58.535Z,15.40
2019-03-29T14:57:26.988Z,14.73
2019-03-29T14:59:55.606Z,12.20
2019-03-29T15:02:24.036Z,12.47
2019-03-29T15:04:52.716Z,13.40
2019-03-29T15:07:21.212Z,15.37
2019-03-29T15:09:50.409Z,13.07
2019-03-29T15:12:18.900Z,17.10
2019-03-29T15:14:47.503Z,13.67
2019-03-29T15:17:16.041Z,15.20
2019-03-29T15:19:44.493Z,12.73
2019-03-29T15:22:12.911Z,15.03
2019-03-29T15:24:41.345Z,13.90
2019-03-29T15:27:09.791Z,15.87
2019-03-29T15:29:38.220Z,13.37
2019-03-29T15:32:06.654Z,13.70
2019-03-29T15:34:35.076Z,12.93
2019-03-29T15:37:03.540Z,12.73
2019-03-29T15:39:31.964Z,13.73
2019-03-29T15:42:00.484Z,16.70
2019-03-29T15:44:28.920Z,16.70
2019-03-29T15:46:57.385Z,14.43
2019-03-29T15:49:25.873Z,16.10
2019-03-29T15:51:54.392Z,16.20
2019-03-29T15:54:22.815Z,15.90
2019-03-29T15:56:51.264Z,14.53
2019-03-29T15:59:19.794Z,15.63
2019-03-29T16:01:48.252Z,13.83
2019-03-29T16:04:16.784Z,14.80
2019-03-29T16:06:45.216Z,17.53
2019-03-29T16:09:13.753Z,16.60
2019-03-29T16:11:42.263Z,16.13
2019-03-29T16:14:10.728Z,67.13
2019-03-29T16:16:39.153Z,18.27
2019-03-29T16:19:07.603Z,17.63
2019-03-29T16:21:36.044Z,16.90
2019-03-29T16:24:04.541Z,14.73
2019-03-29T16:26:32.963Z,18.83
2019-03-29T16:29:01.415Z,22.10
2019-03-29T16:31:29.909Z,19.60
2019-03-29T16:33:58.390Z,25.53
2019-03-29T16:36:26.838Z,24.53
2019-03-29T16:38:55.279Z,18.30
2019-03-29T16:41:23.787Z,22.20
2019-03-29T16:43:52.232Z,20.93
2019-03-29T16:46:20.683Z,20.33
2019-03-29T16:48:50.681Z,22.60
2019-03-29T16:51:19.131Z,17.83
2019-03-29T16:53:47.565Z,19.90
2019-03-29T16:56:16.019Z,20.37
2019-03-29T16:58:44.544Z,23.67
2019-03-29T17:01:13.063Z,20.40
2019-03-29T17:03:41.511Z,23.20
2019-03-29T17:06:09.968Z,18.80
2019-03-29T17:08:38.592Z,21.27
2019-03-29T17:11:07.032Z,20.33
2019-03-29T17:13:35.522Z,24.93
2019-03-29T17:16:04.206Z,23.80
2019-03-29T17:18:32.638Z,23.77
2019-03-29T17:21:01.346Z,28.33
2019-03-29T17:23:32.871Z,20.57
2019-03-29T17:26:01.317Z,26.10
2019-03-29T17:28:29.829Z,21.23
2019-03-29T17:30:59.964Z,28.67
2019-03-29T17:33:28.515Z,20.27
2019-03-29T17:35:56.968Z,29.40
2019-03-29T17:38:25.424Z,23.50
2019-03-29T17:40:53.880Z,26.37
2019-03-29T17:43:22.320Z,22.87
2019-03-29T17:45:50.771Z,23.80
2019-03-29T17:48:19.308Z,26.40
2019-03-29T17:50:47.865Z,29.83
2019-03-29T17:53:16.303Z,26.70
2019-03-29T17:55:44.743Z,109.83
2019-03-29T17:58:13.174Z,27.50
2019-03-29T18:00:41.605Z,23.47
2019-03-29T18:03:10.032Z,28.70
2019-03-29T18:05:38.560Z,26.07
2019-03-29T18:08:07.008Z,27.17
2019-03-29T18:10:35.507Z,26.50
2019-03-29T18:13:04.016Z,35.33
2019-03-29T18:15:32.514Z,30.67
2019-03-29T18:18:00.964Z,30.30
2019-03-29T18:20:29.393Z,31.23
2019-03-29T18:22:57.825Z,30.57
2019-03-29T18:25:26.269Z,37.80
2019-03-29T18:27:54.716Z,47.70
2019-03-29T18:30:40.576Z,72.57
2019-03-29T18:33:09.098Z,44.47
2019-03-29T18:35:37.588Z,40.77
2019-03-29T18:38:06.125Z,44.40
2019-03-29T18:40:34.557Z,39.77
2019-03-29T18:43:03.050Z,41.50
2019-03-29T18:45:31.557Z,37.67
2019-03-29T18:48:00.080Z,39.20
2019-03-29T18:50:28.608Z,36.57
2019-03-29T18:52:57.041Z,47.07
2019-03-29T18:55:25.522Z,43.27
2019-03-29T18:57:53.964Z,42.27
2019-03-29T19:00:30.915Z,70.43
2019-03-29T19:02:59.534Z,51.90
2019-03-29T19:05:28.516Z,44.17
2019-03-29T19:07:56.943Z,46.40
2019-03-29T19:10:25.383Z,47.10
2019-03-29T19:12:53.838Z,44.20
2019-03-29T19:15:22.301Z,39.43
2019-03-29T19:17:50.798Z,39.70
2019-03-29T19:20:27.456Z,44.43
2019-03-29T19:22:49.387Z,46.80
2019-03-29T19:25:17.798Z,41.10
2019-03-29T19:27:46.218Z,42.33
2019-03-29T19:30:14.882Z,40.33
2019-03-29T19:32:43.329Z,40.83
2019-03-29T19:35:11.901Z,41.47
2019-03-29T19:37:40.322Z,48.23
2019-03-29T19:40:09.093Z,40.20
2019-03-29T19:42:37.579Z,42.17
2019-03-29T19:45:08.350Z,40.80
2019-03-29T19:47:36.773Z,44.77
2019-03-29T19:50:06.343Z,45.13
2019-03-29T19:52:34.774Z,46.10
2019-03-29T19:55:03.276Z,39.00
2019-03-29T19:57:31.706Z,40.97
2019-03-29T20:00:00.190Z,46.77
2019-03-29T20:02:28.860Z,45.37
2019-03-29T20:04:57.262Z,50.53
2019-03-29T20:07:25.712Z,49.43
2019-03-29T20:09:54.130Z,51.40
2019-03-29T20:12:25.108Z,51.43
2019-03-29T20:14:52.747Z,49.10
2019-03-29T20:17:27.309Z,47.50
2019-03-29T20:19:51.358Z,47.67
2019-03-29T20:22:19.860Z,59.20
2019-03-29T20:24:48.279Z,53.50
2019-03-29T20:27:16.728Z,50.97
2019-03-29T20:29:45.143Z,48.80
2019-03-29T20:32:13.566Z,47.90
2019-03-29T20:34:42.103Z,48.00
2019-03-29T20:37:10.534Z,46.90
2019-03-29T20:39:38.975Z,44.70
2019-03-29T20:42:07.450Z,53.10
2019-03-29T20:44:36.001Z,48.03
2019-03-29T20:47:04.417Z,55.70
2019-03-29T20:49:32.838Z,49.43
2019-03-29T20:52:01.295Z,51.73
2019-03-29T20:54:29.706Z,48.37
2019-03-29T20:56:58.180Z,51.33
2019-03-29T20:59:26.658Z,50.07
2019-03-29T21:01:55.163Z,56.33
2019-03-29T21:04:23.612Z,53.00
2019-03-29T21:06:52.075Z,47.97
2019-03-29T21:09:20.570Z,49.07
2019-03-29T21:11:49.406Z,49.73
2019-03-29T21:14:18.170Z,46.20
2019-03-29T21:16:46.654Z,47.50
2019-03-29T21:19:15.108Z,49.83
2019-03-29T21:21:43.534Z,55.03
2019-03-29T21:24:11.947Z,54.60
2019-03-29T21:26:40.378Z,54.00
2019-03-29T21:29:08.801Z,52.37
2019-03-29T21:31:37.225Z,50.70
2019-03-29T21:34:05.655Z,54.60
2019-03-29T21:36:34.071Z,54.80
2019-03-29T21:39:02.511Z,61.30
2019-03-29T21:41:30.928Z,50.57
2019-03-29T21:43:59.386Z,61.90
2019-03-29T21:46:27.875Z,55.97
2019-03-29T21:48:56.318Z,55.93
2019-03-29T21:51:24.736Z,56.57
2019-03-29T21:53:53.145Z,56.80
2019-03-29T21:56:21.642Z,58.93
2019-03-29T21:58:50.076Z,47.77
2019-03-29T22:01:18.507Z,61.77
2019-03-29T22:03:46.948Z,56.30
2019-03-29T22:06:15.377Z,49.43
2019-03-29T22:08:43.807Z,54.67
2019-03-29T22:11:12.235Z,51.90
2019-03-29T22:13:40.668Z,48.27
2019-03-29T22:16:09.104Z,51.43
2019-03-29T22:18:38.354Z,53.10
2019-03-29T22:21:06.933Z,48.50
2019-03-29T22:23:35.383Z,49.47
2019-03-29T22:26:03.780Z,49.70
2019-03-29T22:28:32.206Z,48.80
2019-03-29T22:31:00.623Z,48.97
2019-03-29T22:33:29.066Z,48.07
2019-03-29T22:35:57.490Z,46.77
2019-03-29T22:38:25.922Z,44.90
2019-03-29T22:40:54.342Z,54.43
2019-03-29T22:43:22.766Z,47.10
2019-03-29T22:45:51.191Z,51.73
2019-03-29T22:48:19.729Z,51.37
2019-03-29T22:50:48.832Z,49.20
2019-03-29T22:53:17.251Z,45.53
2019-03-29T22:55:57.953Z,47.83
2019-03-29T22:58:28.440Z,44.87
2019-03-29T23:00:57.331Z,46.30
2019-03-29T23:03:25.762Z,51.17
2019-03-29T23:05:54.177Z,46.37
2019-03-29T23:08:22.597Z,50.73
2019-03-29T23:10:51.012Z,45.20
2019-03-29T23:13:19.443Z,45.13
2019-03-29T23:15:47.858Z,43.47
2019-03-29T23:18:16.274Z,49.50
2019-03-29T23:20:44.686Z,46.90
2019-03-29T23:23:13.121Z,42.20
2019-03-29T23:25:41.547Z,43.23
2019-03-29T23:28:09.978Z,43.43
2019-03-29T23:30:38.406Z,42.10
2019-03-29T23:33:06.927Z,45.70
2019-03-29T23:35:35.337Z,52.30
2019-03-29T23:38:03.769Z,43.90
2019-03-29T23:40:32.255Z,47.20
2019-03-29T23:43:00.669Z,46.17
2019-03-29T23:45:29.094Z,46.00
2019-03-29T23:47:57.517Z,47.37
2019-03-29T23:50:25.952Z,47.40
2019-03-29T23:52:54.371Z,47.50
2019-03-29T23:55:22.804Z,44.10
2019-03-29T23:57:51.230Z,56.90
